sensor_id;sensor_type;location;lat;lon;timestamp;temperature;humidity
74178;DHT22;62540;48.456;-4.456;2024-01-16T00:00:06;4.85;65.65
74178;DHT22;62540;48.456;-4.456;2024-01-16T00:02:33;4.90;65.71
74178;DHT22;62540;48.456;-4.456;2024-01-16T00:04:59;4.88;65.69
74178;DHT22;62540;48.456;-4.456;2024-01-16T00:07:24;4.85;65.72
74178;DHT22;62540;48.456;-4.456;2024-01-16T00:09:49;4.90;65.51
74178;DHT22;62540;48.456;-4.456;2024-01-16T00:12:18;4.90;65.53
74178;DHT22;62540;48.456;-4.456;2024-01-16T00:14:43;4.88;65.48
74178;DHT22;62540;48.456;-4.456;2024-01-16T00:17:08;4.84;65.60
74178;DHT22;62540;48.456;-4.456;2024-01-16T00:19:34;4.85;65.48
74178;DHT22;62540;48.456;-4.456;2024-01-16T00:22:00;4.83;65.75
74178;DHT22;62540;48.456;-4.456;2024-01-16T00:24:27;4.81;65.85
74178;DHT22;62540;48.456;-4.456;2024-01-16T00:26:53;4.81;65.79
74178;DHT22;62540;48.456;-4.456;2024-01-16T00:29:18;4.84;65.91
74178;DHT22;62540;48.456;-4.456;2024-01-16T00:31:43;4.84;65.86
74178;DHT22;62540;48.456;-4.456;2024-01-16T00:34:09;4.84;65.91
74178;DHT22;62540;48.456;-4.456;2024-01-16T00:36:34;4.84;65.95
74178;DHT22;62540;48.456;-4.456;2024-01-16T00:39:00;4.83;66.03
74178;DHT22;62540;48.456;-4.456;2024-01-16T00:41:25;4.81;65.81
74178;DHT22;62540;48.456;-4.456;2024-01-16T00:43:51;4.76;65.82
74178;DHT22;62540;48.456;-4.456;2024-01-16T00:46:16;4.70;65.39
74178;DHT22;62540;48.456;-4.456;2024-01-16T00:48:41;4.70;65.79
74178;DHT22;62540;48.456;-4.456;2024-01-16T00:51:07;4.69;66.01
74178;DHT22;62540;48.456;-4.456;2024-01-16T00:53:32;4.66;65.94
74178;DHT22;62540;48.456;-4.456;2024-01-16T00:55:58;4.70;66.02
74178;DHT22;62540;48.456;-4.456;2024-01-16T00:58:23;4.71;65.94
74178;DHT22;62540;48.456;-4.456;2024-01-16T01:00:49;4.74;65.99
74178;DHT22;62540;48.456;-4.456;2024-01-16T01:03:14;4.74;65.96
74178;DHT22;62540;48.456;-4.456;2024-01-16T01:05:40;4.76;65.96
74178;DHT22;62540;48.456;-4.456;2024-01-16T01:08:06;4.73;65.86
74178;DHT22;62540;48.456;-4.456;2024-01-16T01:10:31;4.73;65.82
74178;DHT22;62540;48.456;-4.456;2024-01-16T01:12:57;4.74;65.75
74178;DHT22;62540;48.456;-4.456;2024-01-16T01:15:22;4.74;65.58
74178;DHT22;62540;48.456;-4.456;2024-01-16T01:17:49;4.73;65.51
74178;DHT22;62540;48.456;-4.456;2024-01-16T01:20:15;4.66;65.43
74178;DHT22;62540;48.456;-4.456;2024-01-16T01:22:40;4.57;65.23
74178;DHT22;62540;48.456;-4.456;2024-01-16T01:25:06;4.54;65.43
74178;DHT22;62540;48.456;-4.456;2024-01-16T01:27:32;4.52;65.54
74178;DHT22;62540;48.456;-4.456;2024-01-16T01:29:57;4.48;65.66
74178;DHT22;62540;48.456;-4.456;2024-01-16T01:32:23;4.50;65.64
74178;DHT22;62540;48.456;-4.456;2024-01-16T01:34:49;4.45;65.68
74178;DHT22;62540;48.456;-4.456;2024-01-16T01:37:14;4.46;65.73
74178;DHT22;62540;48.456;-4.456;2024-01-16T01:39:40;4.40;65.78
74178;DHT22;62540;48.456;-4.456;2024-01-16T01:42:05;4.39;65.85
74178;DHT22;62540;48.456;-4.456;2024-01-16T01:44:30;4.39;65.88
74178;DHT22;62540;48.456;-4.456;2024-01-16T01:46:56;4.35;65.75
74178;DHT22;62540;48.456;-4.456;2024-01-16T01:49:23;4.30;65.75
74178;DHT22;62540;48.456;-4.456;2024-01-16T01:51:50;4.26;65.80
74178;DHT22;62540;48.456;-4.456;2024-01-16T01:54:16;4.26;65.95
74178;DHT22;62540;48.456;-4.456;2024-01-16T01:56:47;4.25;65.98
74178;DHT22;62540;48.456;-4.456;2024-01-16T01:59:14;4.23;66.06
74178;DHT22;62540;48.456;-4.456;2024-01-16T02:01:41;4.23;66.05
74178;DHT22;62540;48.456;-4.456;2024-01-16T02:04:06;4.20;66.12
74178;DHT22;62540;48.456;-4.456;2024-01-16T02:06:33;4.22;66.14
74178;DHT22;62540;48.456;-4.456;2024-01-16T02:08:59;4.19;66.14
74178;DHT22;62540;48.456;-4.456;2024-01-16T02:11:25;4.12;66.20
74178;DHT22;62540;48.456;-4.456;2024-01-16T02:13:50;4.11;66.25
74178;DHT22;62540;48.456;-4.456;2024-01-16T02:16:23;4.03;66.28
74178;DHT22;62540;48.456;-4.456;2024-01-16T02:18:49;4.03;66.36
74178;DHT22;62540;48.456;-4.456;2024-01-16T02:21:20;4.01;66.38
74178;DHT22;62540;48.456;-4.456;2024-01-16T02:23:46;3.98;66.39
74178;DHT22;62540;48.456;-4.456;2024-01-16T02:26:14;3.98;66.44
74178;DHT22;62540;48.456;-4.456;2024-01-16T02:28:39;3.99;66.46
74178;DHT22;62540;48.456;-4.456;2024-01-16T02:31:04;3.99;66.38
74178;DHT22;62540;48.456;-4.456;2024-01-16T02:33:30;4.02;66.29
74178;DHT22;62540;48.456;-4.456;2024-01-16T02:35:55;4.01;66.24
74178;DHT22;62540;48.456;-4.456;2024-01-16T02:38:20;4.01;66.29
74178;DHT22;62540;48.456;-4.456;2024-01-16T02:40:46;3.98;66.29
74178;DHT22;62540;48.456;-4.456;2024-01-16T02:43:11;3.97;66.23
74178;DHT22;62540;48.456;-4.456;2024-01-16T02:45:37;3.94;66.28
74178;DHT22;62540;48.456;-4.456;2024-01-16T02:48:02;3.94;66.35
74178;DHT22;62540;48.456;-4.456;2024-01-16T02:50:28;3.91;66.30
74178;DHT22;62540;48.456;-4.456;2024-01-16T02:52:54;3.90;66.40
74178;DHT22;62540;48.456;-4.456;2024-01-16T02:55:19;3.88;66.44
74178;DHT22;62540;48.456;-4.456;2024-01-16T02:57:44;3.84;66.43
74178;DHT22;62540;48.456;-4.456;2024-01-16T03:00:10;3.81;66.50
74178;DHT22;62540;48.456;-4.456;2024-01-16T03:02:36;3.80;66.52
74178;DHT22;62540;48.456;-4.456;2024-01-16T03:05:04;3.75;66.53
74178;DHT22;62540;48.456;-4.456;2024-01-16T03:07:34;3.75;66.54
74178;DHT22;62540;48.456;-4.456;2024-01-16T03:09:59;3.71;66.54
74178;DHT22;62540;48.456;-4.456;2024-01-16T03:12:25;3.70;66.19
74178;DHT22;62540;48.456;-4.456;2024-01-16T03:14:50;3.63;66.30
74178;DHT22;62540;48.456;-4.456;2024-01-16T03:17:16;3.63;66.35
74178;DHT22;62540;48.456;-4.456;2024-01-16T03:19:41;3.59;66.40
74178;DHT22;62540;48.456;-4.456;2024-01-16T03:22:09;3.57;66.15
74178;DHT22;62540;48.456;-4.456;2024-01-16T03:24:34;3.54;66.26
74178;DHT22;62540;48.456;-4.456;2024-01-16T03:26:59;3.53;66.37
74178;DHT22;62540;48.456;-4.456;2024-01-16T03:29:25;3.54;66.22
74178;DHT22;62540;48.456;-4.456;2024-01-16T03:31:50;3.53;66.20
74178;DHT22;62540;48.456;-4.456;2024-01-16T03:34:15;3.54;66.22
74178;DHT22;62540;48.456;-4.456;2024-01-16T03:36:41;3.53;66.24
74178;DHT22;62540;48.456;-4.456;2024-01-16T03:39:06;3.50;65.89
74178;DHT22;62540;48.456;-4.456;2024-01-16T03:41:32;3.50;66.09
74178;DHT22;62540;48.456;-4.456;2024-01-16T03:43:57;3.53;66.09
74178;DHT22;62540;48.456;-4.456;2024-01-16T03:46:22;3.53;66.05
74178;DHT22;62540;48.456;-4.456;2024-01-16T03:48:48;3.56;65.97
74178;DHT22;62540;48.456;-4.456;2024-01-16T03:51:13;3.56;66.07
74178;DHT22;62540;48.456;-4.456;2024-01-16T03:53:44;3.56;66.02
74178;DHT22;62540;48.456;-4.456;2024-01-16T03:56:10;3.59;66.21
74178;DHT22;62540;48.456;-4.456;2024-01-16T03:58:35;3.59;65.91
74178;DHT22;62540;48.456;-4.456;2024-01-16T04:01:01;3.57;66.02
74178;DHT22;62540;48.456;-4.456;2024-01-16T04:03:26;3.60;65.97
74178;DHT22;62540;48.456;-4.456;2024-01-16T04:05:51;3.57;65.64
74178;DHT22;62540;48.456;-4.456;2024-01-16T04:08:17;3.61;65.87
74178;DHT22;62540;48.456;-4.456;2024-01-16T04:10:42;3.61;65.66
74178;DHT22;62540;48.456;-4.456;2024-01-16T04:13:07;3.57;65.55
74178;DHT22;62540;48.456;-4.456;2024-01-16T04:15:33;3.56;65.39
74178;DHT22;62540;48.456;-4.456;2024-01-16T04:17:59;3.53;65.55
74178;DHT22;62540;48.456;-4.456;2024-01-16T04:20:25;3.50;65.43
74178;DHT22;62540;48.456;-4.456;2024-01-16T04:22:51;3.53;65.61
74178;DHT22;62540;48.456;-4.456;2024-01-16T04:25:16;3.47;65.36
74178;DHT22;62540;48.456;-4.456;2024-01-16T04:27:42;3.44;65.28
74178;DHT22;62540;48.456;-4.456;2024-01-16T04:30:08;3.49;65.78
74178;DHT22;62540;48.456;-4.456;2024-01-16T04:32:33;3.50;65.83
74178;DHT22;62540;48.456;-4.456;2024-01-16T04:34:58;3.54;65.58
74178;DHT22;62540;48.456;-4.456;2024-01-16T04:37:24;3.57;65.68
74178;DHT22;62540;48.456;-4.456;2024-01-16T04:39:49;3.57;65.58
74178;DHT22;62540;48.456;-4.456;2024-01-16T04:42:15;3.54;65.38
74178;DHT22;62540;48.456;-4.456;2024-01-16T04:44:43;3.53;65.85
74178;DHT22;62540;48.456;-4.456;2024-01-16T04:47:08;3.54;65.74
74178;DHT22;62540;48.456;-4.456;2024-01-16T04:49:33;3.59;65.61
74178;DHT22;62540;48.456;-4.456;2024-01-16T04:51:59;3.56;65.60
74178;DHT22;62540;48.456;-4.456;2024-01-16T04:54:25;3.61;65.89
74178;DHT22;62540;48.456;-4.456;2024-01-16T04:56:50;3.59;65.33
74178;DHT22;62540;48.456;-4.456;2024-01-16T04:59:16;3.60;65.77
74178;DHT22;62540;48.456;-4.456;2024-01-16T05:01:41;3.61;65.42
74178;DHT22;62540;48.456;-4.456;2024-01-16T05:04:07;3.57;65.10
74178;DHT22;62540;48.456;-4.456;2024-01-16T05:06:34;3.59;65.56
74178;DHT22;62540;48.456;-4.456;2024-01-16T05:08:59;3.56;64.78
74178;DHT22;62540;48.456;-4.456;2024-01-16T05:11:25;3.57;65.55
74178;DHT22;62540;48.456;-4.456;2024-01-16T05:13:50;3.54;64.83
74178;DHT22;62540;48.456;-4.456;2024-01-16T05:16:23;3.54;65.43
74178;DHT22;62540;48.456;-4.456;2024-01-16T05:18:48;3.51;65.44
74178;DHT22;62540;48.456;-4.456;2024-01-16T05:21:14;3.53;65.40
74178;DHT22;62540;48.456;-4.456;2024-01-16T05:23:39;3.51;64.85
74178;DHT22;62540;48.456;-4.456;2024-01-16T05:26:04;3.54;65.44
74178;DHT22;62540;48.456;-4.456;2024-01-16T05:28:30;3.51;65.29
74178;DHT22;62540;48.456;-4.456;2024-01-16T05:30:55;3.50;65.16
74178;DHT22;62540;48.456;-4.456;2024-01-16T05:33:21;3.47;65.41
74178;DHT22;62540;48.456;-4.456;2024-01-16T05:35:46;3.51;65.39
74178;DHT22;62540;48.456;-4.456;2024-01-16T05:38:12;3.49;65.00
74178;DHT22;62540;48.456;-4.456;2024-01-16T05:40:37;3.47;65.12
74178;DHT22;62540;48.456;-4.456;2024-01-16T05:43:03;3.47;65.37
74178;DHT22;62540;48.456;-4.456;2024-01-16T05:45:28;3.50;65.39
74178;DHT22;62540;48.456;-4.456;2024-01-16T05:47:54;3.51;65.20
74178;DHT22;62540;48.456;-4.456;2024-01-16T05:50:20;3.49;65.12
74178;DHT22;62540;48.456;-4.456;2024-01-16T05:52:46;3.47;64.77
74178;DHT22;62540;48.456;-4.456;2024-01-16T05:55:11;3.49;65.23
74178;DHT22;62540;48.456;-4.456;2024-01-16T05:57:36;3.51;65.33
74178;DHT22;62540;48.456;-4.456;2024-01-16T06:00:03;3.50;65.17
74178;DHT22;62540;48.456;-4.456;2024-01-16T06:02:29;3.47;65.22
74178;DHT22;62540;48.456;-4.456;2024-01-16T06:04:55;3.50;65.15
74178;DHT22;62540;48.456;-4.456;2024-01-16T06:07:20;3.40;64.98
74178;DHT22;62540;48.456;-4.456;2024-01-16T06:09:45;3.41;65.30
74178;DHT22;62540;48.456;-4.456;2024-01-16T06:12:11;3.43;65.19
74178;DHT22;62540;48.456;-4.456;2024-01-16T06:14:37;3.46;65.30
74178;DHT22;62540;48.456;-4.456;2024-01-16T06:17:03;3.49;65.20
74178;DHT22;62540;48.456;-4.456;2024-01-16T06:19:30;3.50;65.19
74178;DHT22;62540;48.456;-4.456;2024-01-16T06:21:56;3.56;65.28
74178;DHT22;62540;48.456;-4.456;2024-01-16T06:24:22;3.60;65.16
74178;DHT22;62540;48.456;-4.456;2024-01-16T06:26:47;3.57;65.07
74178;DHT22;62540;48.456;-4.456;2024-01-16T06:29:13;3.61;65.12
74178;DHT22;62540;48.456;-4.456;2024-01-16T06:31:38;3.63;65.05
74178;DHT22;62540;48.456;-4.456;2024-01-16T06:34:03;3.64;65.14
74178;DHT22;62540;48.456;-4.456;2024-01-16T06:36:29;3.67;65.13
74178;DHT22;62540;48.456;-4.456;2024-01-16T06:38:54;3.67;65.18
74178;DHT22;62540;48.456;-4.456;2024-01-16T06:41:20;3.71;65.24
74178;DHT22;62540;48.456;-4.456;2024-01-16T06:43:46;3.71;64.82
74178;DHT22;62540;48.456;-4.456;2024-01-16T06:46:11;3.66;64.65
74178;DHT22;62540;48.456;-4.456;2024-01-16T06:48:37;3.67;64.99
74178;DHT22;62540;48.456;-4.456;2024-01-16T06:51:04;3.69;65.04
74178;DHT22;62540;48.456;-4.456;2024-01-16T06:53:30;3.67;65.08
74178;DHT22;62540;48.456;-4.456;2024-01-16T06:55:55;3.67;65.12
74178;DHT22;62540;48.456;-4.456;2024-01-16T06:58:21;3.70;65.16
74178;DHT22;62540;48.456;-4.456;2024-01-16T07:00:47;3.73;65.05
74178;DHT22;62540;48.456;-4.456;2024-01-16T07:03:13;3.74;64.87
74178;DHT22;62540;48.456;-4.456;2024-01-16T07:05:39;3.70;64.47
74178;DHT22;62540;48.456;-4.456;2024-01-16T07:08:06;3.66;64.87
74178;DHT22;62540;48.456;-4.456;2024-01-16T07:10:32;3.70;65.02
74178;DHT22;62540;48.456;-4.456;2024-01-16T07:12:57;3.70;64.94
74178;DHT22;62540;48.456;-4.456;2024-01-16T07:15:23;3.67;64.97
74178;DHT22;62540;48.456;-4.456;2024-01-16T07:17:48;3.67;64.98
74178;DHT22;62540;48.456;-4.456;2024-01-16T07:20:14;3.66;64.89
74178;DHT22;62540;48.456;-4.456;2024-01-16T07:22:39;3.63;65.10
74178;DHT22;62540;48.456;-4.456;2024-01-16T07:25:05;3.59;65.14
74178;DHT22;62540;48.456;-4.456;2024-01-16T07:27:31;3.60;65.31
74178;DHT22;62540;48.456;-4.456;2024-01-16T07:29:57;3.61;65.29
74178;DHT22;62540;48.456;-4.456;2024-01-16T07:32:22;3.61;65.11
74178;DHT22;62540;48.456;-4.456;2024-01-16T07:34:48;3.64;65.08
74178;DHT22;62540;48.456;-4.456;2024-01-16T07:37:13;3.64;65.06
74178;DHT22;62540;48.456;-4.456;2024-01-16T07:39:41;3.63;65.08
74178;DHT22;62540;48.456;-4.456;2024-01-16T07:42:06;3.61;64.91
74178;DHT22;62540;48.456;-4.456;2024-01-16T07:44:33;3.60;64.98
74178;DHT22;62540;48.456;-4.456;2024-01-16T07:46:58;3.59;64.92
74178;DHT22;62540;48.456;-4.456;2024-01-16T07:49:23;3.61;65.08
74178;DHT22;62540;48.456;-4.456;2024-01-16T07:51:49;3.63;65.20
74178;DHT22;62540;48.456;-4.456;2024-01-16T07:54:14;3.59;65.17
74178;DHT22;62540;48.456;-4.456;2024-01-16T07:56:40;3.60;65.35
74178;DHT22;62540;48.456;-4.456;2024-01-16T07:59:05;3.60;65.21
74178;DHT22;62540;48.456;-4.456;2024-01-16T08:01:32;3.61;65.22
74178;DHT22;62540;48.456;-4.456;2024-01-16T08:03:57;3.63;65.37
74178;DHT22;62540;48.456;-4.456;2024-01-16T08:06:23;3.64;65.43
74178;DHT22;62540;48.456;-4.456;2024-01-16T08:08:49;3.66;65.36
74178;DHT22;62540;48.456;-4.456;2024-01-16T08:11:15;3.66;65.43
74178;DHT22;62540;48.456;-4.456;2024-01-16T08:13:41;3.70;65.44
74178;DHT22;62540;48.456;-4.456;2024-01-16T08:16:07;3.70;65.27
74178;DHT22;62540;48.456;-4.456;2024-01-16T08:18:33;3.69;64.79
74178;DHT22;62540;48.456;-4.456;2024-01-16T08:20:58;3.67;65.20
74178;DHT22;62540;48.456;-4.456;2024-01-16T08:23:23;3.69;65.04
74178;DHT22;62540;48.456;-4.456;2024-01-16T08:25:49;3.71;65.24
74178;DHT22;62540;48.456;-4.456;2024-01-16T08:28:17;3.74;65.22
74178;DHT22;62540;48.456;-4.456;2024-01-16T08:30:42;3.73;64.85
74178;DHT22;62540;48.456;-4.456;2024-01-16T08:33:08;3.75;65.08
74178;DHT22;62540;48.456;-4.456;2024-01-16T08:35:33;3.87;65.31
74178;DHT22;62540;48.456;-4.456;2024-01-16T08:37:59;3.90;65.04
74178;DHT22;62540;48.456;-4.456;2024-01-16T08:40:24;3.90;64.86
74178;DHT22;62540;48.456;-4.456;2024-01-16T08:42:50;3.87;64.56
74178;DHT22;62540;48.456;-4.456;2024-01-16T08:45:23;3.90;64.85
74178;DHT22;62540;48.456;-4.456;2024-01-16T08:47:49;3.91;64.27
74178;DHT22;62540;48.456;-4.456;2024-01-16T08:50:15;3.97;64.94
74178;DHT22;62540;48.456;-4.456;2024-01-16T08:52:40;3.99;64.83
74178;DHT22;62540;48.456;-4.456;2024-01-16T08:55:05;4.03;64.61
74178;DHT22;62540;48.456;-4.456;2024-01-16T08:57:31;4.06;64.52
74178;DHT22;62540;48.456;-4.456;2024-01-16T08:59:56;4.12;64.66
74178;DHT22;62540;48.456;-4.456;2024-01-16T09:02:22;4.19;64.59
74178;DHT22;62540;48.456;-4.456;2024-01-16T09:04:49;4.22;63.91
74178;DHT22;62540;48.456;-4.456;2024-01-16T09:07:16;4.22;64.24
74178;DHT22;62540;48.456;-4.456;2024-01-16T09:09:42;4.26;64.23
74178;DHT22;62540;48.456;-4.456;2024-01-16T09:12:11;4.33;64.37
74178;DHT22;62540;48.456;-4.456;2024-01-16T09:14:37;4.39;64.04
74178;DHT22;62540;48.456;-4.456;2024-01-16T09:17:02;4.46;64.36
74178;DHT22;62540;48.456;-4.456;2024-01-16T09:19:28;4.56;64.17
74178;DHT22;62540;48.456;-4.456;2024-01-16T09:21:54;4.60;63.75
74178;DHT22;62540;48.456;-4.456;2024-01-16T09:24:20;4.74;64.03
74178;DHT22;62540;48.456;-4.456;2024-01-16T09:26:45;4.80;63.52
74178;DHT22;62540;48.456;-4.456;2024-01-16T09:29:11;4.81;63.33
74178;DHT22;62540;48.456;-4.456;2024-01-16T09:31:37;4.85;63.73
74178;DHT22;62540;48.456;-4.456;2024-01-16T09:34:03;4.88;62.93
74178;DHT22;62540;48.456;-4.456;2024-01-16T09:36:29;4.94;63.42
74178;DHT22;62540;48.456;-4.456;2024-01-16T09:38:54;4.94;62.25
74178;DHT22;62540;48.456;-4.456;2024-01-16T09:41:20;4.95;62.76
74178;DHT22;62540;48.456;-4.456;2024-01-16T09:43:47;4.98;62.63
74178;DHT22;62540;48.456;-4.456;2024-01-16T09:46:14;4.98;62.45
74178;DHT22;62540;48.456;-4.456;2024-01-16T09:48:41;5.04;62.14
74178;DHT22;62540;48.456;-4.456;2024-01-16T09:51:06;5.07;62.75
74178;DHT22;62540;48.456;-4.456;2024-01-16T09:53:32;5.17;63.11
74178;DHT22;62540;48.456;-4.456;2024-01-16T09:56:02;5.21;62.49
74178;DHT22;62540;48.456;-4.456;2024-01-16T09:58:30;5.27;61.84
74178;DHT22;62540;48.456;-4.456;2024-01-16T10:00:59;5.32;61.51
74178;DHT22;62540;48.456;-4.456;2024-01-16T10:03:25;5.38;62.49
74178;DHT22;62540;48.456;-4.456;2024-01-16T10:05:51;5.48;62.08
74178;DHT22;62540;48.456;-4.456;2024-01-16T10:08:17;5.49;61.64
74178;DHT22;62540;48.456;-4.456;2024-01-16T10:10:46;5.60;62.32
74178;DHT22;62540;48.456;-4.456;2024-01-16T10:13:13;5.80;62.45
74178;DHT22;62540;48.456;-4.456;2024-01-16T10:15:39;5.94;61.65
74178;DHT22;62540;48.456;-4.456;2024-01-16T10:18:05;6.00;60.93
74178;DHT22;62540;48.456;-4.456;2024-01-16T10:20:35;6.14;60.89
74178;DHT22;62540;48.456;-4.456;2024-01-16T10:23:01;6.18;60.43
74178;DHT22;62540;48.456;-4.456;2024-01-16T10:25:28;6.20;59.80
74178;DHT22;62540;48.456;-4.456;2024-01-16T10:28:04;6.44;59.87
74178;DHT22;62540;48.456;-4.456;2024-01-16T10:30:32;6.68;60.47
74178;DHT22;62540;48.456;-4.456;2024-01-16T10:33:12;6.97;60.46
74178;DHT22;62540;48.456;-4.456;2024-01-16T10:35:38;7.17;59.47
74178;DHT22;62540;48.456;-4.456;2024-01-16T10:38:03;7.47;58.55
74178;DHT22;62540;48.456;-4.456;2024-01-16T10:40:29;7.65;57.40
74178;DHT22;62540;48.456;-4.456;2024-01-16T10:43:00;7.81;58.06
74178;DHT22;62540;48.456;-4.456;2024-01-16T10:45:27;8.03;58.05
74178;DHT22;62540;48.456;-4.456;2024-01-16T10:48:02;8.21;57.51
74178;DHT22;62540;48.456;-4.456;2024-01-16T10:50:29;8.26;56.48
74178;DHT22;62540;48.456;-4.456;2024-01-16T10:52:54;8.19;55.71
74178;DHT22;62540;48.456;-4.456;2024-01-16T10:55:22;8.09;55.45
74178;DHT22;62540;48.456;-4.456;2024-01-16T10:57:51;8.10;57.26
74178;DHT22;62540;48.456;-4.456;2024-01-16T11:00:20;7.99;55.89
74178;DHT22;62540;48.456;-4.456;2024-01-16T11:03:16;7.90;57.30
74178;DHT22;62540;48.456;-4.456;2024-01-16T11:05:44;7.89;55.97
74178;DHT22;62540;48.456;-4.456;2024-01-16T11:08:13;7.75;55.40
74178;DHT22;62540;48.456;-4.456;2024-01-16T11:10:42;7.68;55.41
74178;DHT22;62540;48.456;-4.456;2024-01-16T11:13:09;7.72;56.24
74178;DHT22;62540;48.456;-4.456;2024-01-16T11:15:37;7.82;57.32
74178;DHT22;62540;48.456;-4.456;2024-01-16T11:18:04;7.92;57.22
74178;DHT22;62540;48.456;-4.456;2024-01-16T11:20:31;7.90;56.58
74178;DHT22;62540;48.456;-4.456;2024-01-16T11:22:58;7.99;57.55
74178;DHT22;62540;48.456;-4.456;2024-01-16T11:25:33;8.03;55.41
74178;DHT22;62540;48.456;-4.456;2024-01-16T11:28:28;8.00;54.74
74178;DHT22;62540;48.456;-4.456;2024-01-16T11:30:56;8.04;55.13
74178;DHT22;62540;48.456;-4.456;2024-01-16T11:35:57;8.14;56.60
74178;DHT22;62540;48.456;-4.456;2024-01-16T11:38:24;8.14;55.04
74178;DHT22;62540;48.456;-4.456;2024-01-16T11:40:54;8.17;56.07
74178;DHT22;62540;48.456;-4.456;2024-01-16T11:45:59;8.00;55.44
74178;DHT22;62540;48.456;-4.456;2024-01-16T11:48:25;8.00;56.28
74178;DHT22;62540;48.456;-4.456;2024-01-16T11:50:52;8.04;56.72
74178;DHT22;62540;48.456;-4.456;2024-01-16T11:59:18;7.93;56.09
74178;DHT22;62540;48.456;-4.456;2024-01-16T12:01:53;7.90;56.27
74178;DHT22;62540;48.456;-4.456;2024-01-16T12:04:22;7.81;56.04
74178;DHT22;62540;48.456;-4.456;2024-01-16T12:06:58;7.82;56.65
74178;DHT22;62540;48.456;-4.456;2024-01-16T12:09:26;7.90;57.43
74178;DHT22;62540;48.456;-4.456;2024-01-16T12:12:02;7.96;56.14
74178;DHT22;62540;48.456;-4.456;2024-01-16T12:14:28;8.02;57.27
74178;DHT22;62540;48.456;-4.456;2024-01-16T12:17:13;8.16;57.31
74178;DHT22;62540;48.456;-4.456;2024-01-16T12:19:39;8.20;56.28
74178;DHT22;62540;48.456;-4.456;2024-01-16T12:22:10;8.10;55.01
74178;DHT22;62540;48.456;-4.456;2024-01-16T12:24:38;8.06;56.21
74178;DHT22;62540;48.456;-4.456;2024-01-16T12:27:04;8.00;56.09
74178;DHT22;62540;48.456;-4.456;2024-01-16T12:29:30;7.93;55.07
74178;DHT22;62540;48.456;-4.456;2024-01-16T12:34:32;7.87;56.39
74178;DHT22;62540;48.456;-4.456;2024-01-16T12:37:05;7.90;56.38
74178;DHT22;62540;48.456;-4.456;2024-01-16T12:39:32;7.83;56.19
74178;DHT22;62540;48.456;-4.456;2024-01-16T12:41:58;7.59;55.35
74178;DHT22;62540;48.456;-4.456;2024-01-16T12:44:31;7.58;56.72
74178;DHT22;62540;48.456;-4.456;2024-01-16T12:46:57;7.56;56.70
74178;DHT22;62540;48.456;-4.456;2024-01-16T12:49:23;7.50;56.23
74178;DHT22;62540;48.456;-4.456;2024-01-16T12:51:49;7.51;56.67
74178;DHT22;62540;48.456;-4.456;2024-01-16T12:54:16;7.51;56.71
74178;DHT22;62540;48.456;-4.456;2024-01-16T12:56:42;7.52;56.93
74178;DHT22;62540;48.456;-4.456;2024-01-16T12:59:12;7.58;57.08
74178;DHT22;62540;48.456;-4.456;2024-01-16T13:01:43;7.56;56.59
74178;DHT22;62540;48.456;-4.456;2024-01-16T13:04:10;7.55;55.96
74178;DHT22;62540;48.456;-4.456;2024-01-16T13:06:35;7.48;56.39
74178;DHT22;62540;48.456;-4.456;2024-01-16T13:09:10;7.48;56.87
74178;DHT22;62540;48.456;-4.456;2024-01-16T13:14:12;7.30;57.09
74178;DHT22;62540;48.456;-4.456;2024-01-16T13:16:37;7.36;57.45
74178;DHT22;62540;48.456;-4.456;2024-01-16T13:19:03;7.30;56.93
74178;DHT22;62540;48.456;-4.456;2024-01-16T13:21:30;7.27;56.53
74178;DHT22;62540;48.456;-4.456;2024-01-16T13:23:55;7.17;56.97
74178;DHT22;62540;48.456;-4.456;2024-01-16T13:26:21;7.20;57.70
74178;DHT22;62540;48.456;-4.456;2024-01-16T13:28:47;7.24;57.76
74178;DHT22;62540;48.456;-4.456;2024-01-16T13:31:13;7.21;57.76
74178;DHT22;62540;48.456;-4.456;2024-01-16T13:33:38;7.28;57.88
74178;DHT22;62540;48.456;-4.456;2024-01-16T13:36:04;7.18;56.50
74178;DHT22;62540;48.456;-4.456;2024-01-16T13:38:30;7.14;56.39
74178;DHT22;62540;48.456;-4.456;2024-01-16T13:40:55;7.11;56.58
74178;DHT22;62540;48.456;-4.456;2024-01-16T13:43:21;6.92;56.89
74178;DHT22;62540;48.456;-4.456;2024-01-16T13:45:46;6.76;56.58
74178;DHT22;62540;48.456;-4.456;2024-01-16T13:48:15;6.72;57.35
74178;DHT22;62540;48.456;-4.456;2024-01-16T13:50:40;6.77;57.46
74178;DHT22;62540;48.456;-4.456;2024-01-16T13:53:05;6.82;57.71
74178;DHT22;62540;48.456;-4.456;2024-01-16T13:55:32;6.71;57.57
74178;DHT22;62540;48.456;-4.456;2024-01-16T13:57:57;6.71;57.78
74178;DHT22;62540;48.456;-4.456;2024-01-16T14:00:23;6.62;57.81
74178;DHT22;62540;48.456;-4.456;2024-01-16T14:02:49;6.56;57.88
74178;DHT22;62540;48.456;-4.456;2024-01-16T14:05:16;6.56;58.03
74178;DHT22;62540;48.456;-4.456;2024-01-16T14:07:43;6.52;58.11
74178;DHT22;62540;48.456;-4.456;2024-01-16T14:10:12;6.48;58.18
74178;DHT22;62540;48.456;-4.456;2024-01-16T14:12:42;6.44;58.40
74178;DHT22;62540;48.456;-4.456;2024-01-16T14:15:09;6.46;58.63
74178;DHT22;62540;48.456;-4.456;2024-01-16T14:17:44;6.49;58.34
74178;DHT22;62540;48.456;-4.456;2024-01-16T14:20:10;6.46;58.24
74178;DHT22;62540;48.456;-4.456;2024-01-16T14:22:36;6.42;58.41
74178;DHT22;62540;48.456;-4.456;2024-01-16T14:25:08;6.45;58.75
74178;DHT22;62540;48.456;-4.456;2024-01-16T14:27:41;6.41;58.38
74178;DHT22;62540;48.456;-4.456;2024-01-16T14:30:10;6.41;58.84
74178;DHT22;62540;48.456;-4.456;2024-01-16T14:32:37;6.41;58.99
74178;DHT22;62540;48.456;-4.456;2024-01-16T14:35:04;6.45;59.06
74178;DHT22;62540;48.456;-4.456;2024-01-16T14:37:30;6.44;58.64
74178;DHT22;62540;48.456;-4.456;2024-01-16T14:39:57;6.41;58.92
74178;DHT22;62540;48.456;-4.456;2024-01-16T14:42:27;6.41;58.66
74178;DHT22;62540;48.456;-4.456;2024-01-16T14:44:52;6.36;58.83
74178;DHT22;62540;48.456;-4.456;2024-01-16T14:47:17;6.34;58.72
74178;DHT22;62540;48.456;-4.456;2024-01-16T14:49:43;6.32;59.08
74178;DHT22;62540;48.456;-4.456;2024-01-16T14:52:08;6.28;58.95
74178;DHT22;62540;48.456;-4.456;2024-01-16T14:54:34;6.22;59.05
74178;DHT22;62540;48.456;-4.456;2024-01-16T14:56:59;6.21;59.05
74178;DHT22;62540;48.456;-4.456;2024-01-16T14:59:25;6.07;59.24
74178;DHT22;62540;48.456;-4.456;2024-01-16T15:01:50;6.03;59.54
74178;DHT22;62540;48.456;-4.456;2024-01-16T15:04:18;6.10;59.89
74178;DHT22;62540;48.456;-4.456;2024-01-16T15:06:43;6.03;59.90
74178;DHT22;62540;48.456;-4.456;2024-01-16T15:09:09;6.06;59.97
74178;DHT22;62540;48.456;-4.456;2024-01-16T15:11:38;6.06;59.86
74178;DHT22;62540;48.456;-4.456;2024-01-16T15:14:03;6.11;59.85
74178;DHT22;62540;48.456;-4.456;2024-01-16T15:16:29;6.13;60.26
74178;DHT22;62540;48.456;-4.456;2024-01-16T15:18:55;6.18;60.14
74178;DHT22;62540;48.456;-4.456;2024-01-16T15:21:22;6.17;60.17
74178;DHT22;62540;48.456;-4.456;2024-01-16T15:23:47;6.15;59.77
74178;DHT22;62540;48.456;-4.456;2024-01-16T15:26:13;6.00;60.09
74178;DHT22;62540;48.456;-4.456;2024-01-16T15:28:44;6.01;60.37
74178;DHT22;62540;48.456;-4.456;2024-01-16T15:31:09;6.00;60.02
74178;DHT22;62540;48.456;-4.456;2024-01-16T15:33:35;5.96;60.25
74178;DHT22;62540;48.456;-4.456;2024-01-16T15:36:01;5.87;60.22
74178;DHT22;62540;48.456;-4.456;2024-01-16T15:38:26;5.77;60.33
74178;DHT22;62540;48.456;-4.456;2024-01-16T15:40:52;5.76;60.60